sensor_id;sensor_type;location;lat;lon;timestamp;P1;durP1;ratioP1;P2;durP2;ratioP2
4375;SDS011;2202;50.866;12.750;2023-02-28T00:00:13;12.63;;;8.60;;
4375;SDS011;2202;50.866;12.750;2023-02-28T00:02:41;11.83;;;9.23;;
4375;SDS011;2202;50.866;12.750;2023-02-28T00:05:10;11.93;;;9.47;;
4375;SDS011;2202;50.866;12.750;2023-02-28T00:07:38;11.90;;;9.03;;
4375;SDS011;2202;50.866;12.750;2023-02-28T00:10:07;9.00;;;8.10;;
4375;SDS011;2202;50.866;12.750;2023-02-28T00:12:36;11.50;;;8.70;;
4375;SDS011;2202;50.866;12.750;2023-02-28T00:15:05;17.53;;;8.53;;
4375;SDS011;2202;50.866;12.750;2023-02-28T00:17:33;9.63;;;8.70;;
4375;SDS011;2202;50.866;12.750;2023-02-28T00:20:00;12.77;;;9.57;;
4375;SDS011;2202;50.866;12.750;2023-02-28T00:22:37;10.83;;;9.33;;
4375;SDS011;2202;50.866;12.750;2023-02-28T00:25:05;12.90;;;9.37;;
4375;SDS011;2202;50.866;12.750;2023-02-28T00:27:34;12.10;;;9.17;;
4375;SDS011;2202;50.866;12.750;2023-02-28T00:30:01;10.53;;;9.43;;
4375;SDS011;2202;50.866;12.750;2023-02-28T00:32:29;10.80;;;9.50;;
4375;SDS011;2202;50.866;12.750;2023-02-28T00:34:56;10.10;;;9.00;;
4375;SDS011;2202;50.866;12.750;2023-02-28T00:37:22;11.37;;;9.37;;
4375;SDS011;2202;50.866;12.750;2023-02-28T00:39:49;11.47;;;9.77;;
4375;SDS011;2202;50.866;12.750;2023-02-28T00:42:18;10.53;;;9.43;;
4375;SDS011;2202;50.866;12.750;2023-02-28T00:44:44;14.07;;;10.13;;
4375;SDS011;2202;50.866;12.750;2023-02-28T00:47:11;19.03;;;11.07;;
4375;SDS011;2202;50.866;12.750;2023-02-28T00:49:38;11.63;;;9.07;;
4375;SDS011;2202;50.866;12.750;2023-02-28T00:52:05;10.07;;;8.97;;
4375;SDS011;2202;50.866;12.750;2023-02-28T00:54:32;10.57;;;9.50;;
4375;SDS011;2202;50.866;12.750;2023-02-28T00:56:59;10.47;;;9.43;;
4375;SDS011;2202;50.866;12.750;2023-02-28T00:59:27;10.40;;;9.17;;
4375;SDS011;2202;50.866;12.750;2023-02-28T01:01:54;9.20;;;8.33;;
4375;SDS011;2202;50.866;12.750;2023-02-28T01:04:21;11.37;;;8.33;;
4375;SDS011;2202;50.866;12.750;2023-02-28T01:06:48;12.30;;;8.30;;
4375;SDS011;2202;50.866;12.750;2023-02-28T01:09:15;10.00;;;9.00;;
4375;SDS011;2202;50.866;12.750;2023-02-28T01:11:42;11.23;;;8.60;;
4375;SDS011;2202;50.866;12.750;2023-02-28T01:14:10;13.00;;;8.90;;
4375;SDS011;2202;50.866;12.750;2023-02-28T01:16:40;12.17;;;8.70;;
4375;SDS011;2202;50.866;12.750;2023-02-28T01:19:07;14.30;;;8.80;;
4375;SDS011;2202;50.866;12.750;2023-02-28T01:21:34;12.00;;;9.13;;
4375;SDS011;2202;50.866;12.750;2023-02-28T01:24:01;12.30;;;9.43;;
4375;SDS011;2202;50.866;12.750;2023-02-28T01:26:28;11.17;;;9.60;;
4375;SDS011;2202;50.866;12.750;2023-02-28T01:28:55;12.57;;;10.20;;
4375;SDS011;2202;50.866;12.750;2023-02-28T01:31:22;11.10;;;8.30;;
4375;SDS011;2202;50.866;12.750;2023-02-28T01:33:51;10.43;;;8.97;;
4375;SDS011;2202;50.866;12.750;2023-02-28T01:36:19;11.60;;;8.87;;
4375;SDS011;2202;50.866;12.750;2023-02-28T01:38:47;13.90;;;8.83;;
4375;SDS011;2202;50.866;12.750;2023-02-28T01:41:16;12.50;;;8.83;;
4375;SDS011;2202;50.866;12.750;2023-02-28T01:43:55;9.63;;;7.47;;
4375;SDS011;2202;50.866;12.750;2023-02-28T01:46:29;8.87;;;7.83;;
4375;SDS011;2202;50.866;12.750;2023-02-28T01:48:59;8.33;;;7.53;;
4375;SDS011;2202;50.866;12.750;2023-02-28T01:51:32;9.13;;;8.20;;
4375;SDS011;2202;50.866;12.750;2023-02-28T01:54:04;10.90;;;8.60;;
4375;SDS011;2202;50.866;12.750;2023-02-28T01:56:38;11.57;;;8.30;;
4375;SDS011;2202;50.866;12.750;2023-02-28T01:59:10;10.73;;;8.50;;
4375;SDS011;2202;50.866;12.750;2023-02-28T02:01:40;11.13;;;9.00;;
4375;SDS011;2202;50.866;12.750;2023-02-28T02:04:09;9.93;;;8.93;;
4375;SDS011;2202;50.866;12.750;2023-02-28T02:06:38;11.50;;;9.23;;
4375;SDS011;2202;50.866;12.750;2023-02-28T02:09:08;9.70;;;8.40;;
4375;SDS011;2202;50.866;12.750;2023-02-28T02:11:35;9.77;;;8.47;;
4375;SDS011;2202;50.866;12.750;2023-02-28T02:17:08;12.00;;;9.73;;
4375;SDS011;2202;50.866;12.750;2023-02-28T02:19:59;13.03;;;8.03;;
4375;SDS011;2202;50.866;12.750;2023-02-28T02:22:58;12.50;;;10.10;;
4375;SDS011;2202;50.866;12.750;2023-02-28T02:25:48;13.57;;;9.10;;
4375;SDS011;2202;50.866;12.750;2023-02-28T02:31:26;9.50;;;8.57;;
4375;SDS011;2202;50.866;12.750;2023-02-28T02:37:14;12.80;;;8.60;;
4375;SDS011;2202;50.866;12.750;2023-02-28T02:39:50;13.43;;;8.87;;
4375;SDS011;2202;50.866;12.750;2023-02-28T02:42:21;11.23;;;8.50;;
4375;SDS011;2202;50.866;12.750;2023-02-28T02:44:55;10.57;;;8.57;;
4375;SDS011;2202;50.866;12.750;2023-02-28T02:47:26;13.03;;;9.70;;
4375;SDS011;2202;50.866;12.750;2023-02-28T02:49:57;13.20;;;9.90;;
4375;SDS011;2202;50.866;12.750;2023-02-28T02:52:29;9.80;;;8.33;;
4375;SDS011;2202;50.866;12.750;2023-02-28T02:55:00;11.93;;;9.63;;
4375;SDS011;2202;50.866;12.750;2023-02-28T02:57:30;12.17;;;10.07;;
4375;SDS011;2202;50.866;12.750;2023-02-28T03:00:02;9.90;;;7.93;;
4375;SDS011;2202;50.866;12.750;2023-02-28T03:02:33;12.40;;;9.17;;
4375;SDS011;2202;50.866;12.750;2023-02-28T03:05:04;10.63;;;9.17;;
4375;SDS011;2202;50.866;12.750;2023-02-28T03:07:38;12.93;;;9.30;;
4375;SDS011;2202;50.866;12.750;2023-02-28T03:13:00;11.93;;;8.97;;
4375;SDS011;2202;50.866;12.750;2023-02-28T03:15:39;13.27;;;9.00;;
4375;SDS011;2202;50.866;12.750;2023-02-28T03:18:22;10.17;;;9.03;;
4375;SDS011;2202;50.866;12.750;2023-02-28T03:20:58;12.13;;;8.50;;
4375;SDS011;2202;50.866;12.750;2023-02-28T03:23:34;12.13;;;9.03;;
4375;SDS011;2202;50.866;12.750;2023-02-28T03:26:06;13.93;;;10.00;;
4375;SDS011;2202;50.866;12.750;2023-02-28T03:28:39;12.50;;;9.80;;
4375;SDS011;2202;50.866;12.750;2023-02-28T03:31:14;14.80;;;11.03;;
4375;SDS011;2202;50.866;12.750;2023-02-28T03:33:46;11.90;;;10.47;;
4375;SDS011;2202;50.866;12.750;2023-02-28T03:36:23;19.20;;;10.50;;
4375;SDS011;2202;50.866;12.750;2023-02-28T03:38:54;13.60;;;11.50;;
4375;SDS011;2202;50.866;12.750;2023-02-28T03:41:27;16.63;;;11.50;;
4375;SDS011;2202;50.866;12.750;2023-02-28T03:43:59;11.53;;;10.20;;
4375;SDS011;2202;50.866;12.750;2023-02-28T03:46:31;16.10;;;11.70;;
4375;SDS011;2202;50.866;12.750;2023-02-28T03:49:03;14.13;;;12.30;;
4375;SDS011;2202;50.866;12.750;2023-02-28T03:51:38;16.80;;;12.53;;
4375;SDS011;2202;50.866;12.750;2023-02-28T03:54:08;18.43;;;12.50;;
4375;SDS011;2202;50.866;12.750;2023-02-28T03:56:39;18.10;;;13.50;;
4375;SDS011;2202;50.866;12.750;2023-02-28T03:59:12;18.33;;;13.37;;
4375;SDS011;2202;50.866;12.750;2023-02-28T04:01:41;18.37;;;13.23;;
4375;SDS011;2202;50.866;12.750;2023-02-28T04:04:10;15.93;;;13.33;;
4375;SDS011;2202;50.866;12.750;2023-02-28T04:06:40;23.87;;;15.77;;
4375;SDS011;2202;50.866;12.750;2023-02-28T04:09:09;20.83;;;15.13;;
4375;SDS011;2202;50.866;12.750;2023-02-28T04:11:38;22.30;;;17.00;;
4375;SDS011;2202;50.866;12.750;2023-02-28T04:14:07;22.53;;;16.27;;
4375;SDS011;2202;50.866;12.750;2023-02-28T04:16:35;24.93;;;16.57;;
4375;SDS011;2202;50.866;12.750;2023-02-28T04:19:04;23.53;;;16.60;;
4375;SDS011;2202;50.866;12.750;2023-02-28T04:21:33;25.87;;;16.13;;
4375;SDS011;2202;50.866;12.750;2023-02-28T04:24:02;21.37;;;16.20;;
4375;SDS011;2202;50.866;12.750;2023-02-28T04:26:30;26.77;;;18.40;;
4375;SDS011;2202;50.866;12.750;2023-02-28T04:28:58;23.50;;;17.57;;
4375;SDS011;2202;50.866;12.750;2023-02-28T04:31:25;27.80;;;19.57;;
4375;SDS011;2202;50.866;12.750;2023-02-28T04:33:52;26.97;;;18.77;;
4375;SDS011;2202;50.866;12.750;2023-02-28T04:36:19;23.50;;;16.83;;
4375;SDS011;2202;50.866;12.750;2023-02-28T04:38:48;26.00;;;18.57;;
4375;SDS011;2202;50.866;12.750;2023-02-28T04:41:16;27.63;;;19.37;;
4375;SDS011;2202;50.866;12.750;2023-02-28T04:43:43;28.60;;;17.40;;
4375;SDS011;2202;50.866;12.750;2023-02-28T04:46:10;27.03;;;18.50;;
4375;SDS011;2202;50.866;12.750;2023-02-28T04:48:37;20.67;;;17.80;;
4375;SDS011;2202;50.866;12.750;2023-02-28T04:51:05;28.30;;;18.53;;
4375;SDS011;2202;50.866;12.750;2023-02-28T04:53:34;28.23;;;18.07;;
4375;SDS011;2202;50.866;12.750;2023-02-28T04:56:01;26.90;;;19.80;;
4375;SDS011;2202;50.866;12.750;2023-02-28T04:58:30;29.07;;;19.30;;
4375;SDS011;2202;50.866;12.750;2023-02-28T05:01:00;27.50;;;19.87;;
4375;SDS011;2202;50.866;12.750;2023-02-28T05:03:28;30.07;;;20.87;;
4375;SDS011;2202;50.866;12.750;2023-02-28T05:05:55;27.80;;;19.23;;
4375;SDS011;2202;50.866;12.750;2023-02-28T05:08:22;30.63;;;20.47;;
4375;SDS011;2202;50.866;12.750;2023-02-28T05:10:48;35.57;;;22.37;;
4375;SDS011;2202;50.866;12.750;2023-02-28T05:13:15;26.23;;;18.20;;
4375;SDS011;2202;50.866;12.750;2023-02-28T05:15:43;29.87;;;19.40;;
4375;SDS011;2202;50.866;12.750;2023-02-28T05:18:10;31.33;;;20.50;;
4375;SDS011;2202;50.866;12.750;2023-02-28T05:20:37;27.90;;;18.60;;
4375;SDS011;2202;50.866;12.750;2023-02-28T05:23:04;28.27;;;19.20;;
4375;SDS011;2202;50.866;12.750;2023-02-28T05:25:31;26.03;;;18.37;;
4375;SDS011;2202;50.866;12.750;2023-02-28T05:27:57;26.33;;;18.43;;
4375;SDS011;2202;50.866;12.750;2023-02-28T05:30:25;25.73;;;17.73;;
4375;SDS011;2202;50.866;12.750;2023-02-28T05:32:53;28.00;;;18.80;;
4375;SDS011;2202;50.866;12.750;2023-02-28T05:35:20;29.33;;;18.67;;
4375;SDS011;2202;50.866;12.750;2023-02-28T05:37:46;27.37;;;18.80;;
4375;SDS011;2202;50.866;12.750;2023-02-28T05:40:13;29.30;;;18.07;;
4375;SDS011;2202;50.866;12.750;2023-02-28T05:42:40;27.70;;;18.07;;
4375;SDS011;2202;50.866;12.750;2023-02-28T05:45:07;27.63;;;19.80;;
4375;SDS011;2202;50.866;12.750;2023-02-28T05:47:35;26.70;;;17.87;;
4375;SDS011;2202;50.866;12.750;2023-02-28T05:50:04;31.23;;;18.57;;
4375;SDS011;2202;50.866;12.750;2023-02-28T05:52:32;26.33;;;17.70;;
4375;SDS011;2202;50.866;12.750;2023-02-28T05:54:59;28.47;;;20.13;;
4375;SDS011;2202;50.866;12.750;2023-02-28T05:57:25;28.73;;;20.10;;
4375;SDS011;2202;50.866;12.750;2023-02-28T05:59:52;39.00;;;21.20;;
4375;SDS011;2202;50.866;12.750;2023-02-28T06:02:19;30.60;;;20.80;;
4375;SDS011;2202;50.866;12.750;2023-02-28T06:04:46;29.93;;;20.63;;
4375;SDS011;2202;50.866;12.750;2023-02-28T06:07:14;31.33;;;19.60;;
4375;SDS011;2202;50.866;12.750;2023-02-28T06:09:42;30.33;;;20.50;;
4375;SDS011;2202;50.866;12.750;2023-02-28T06:12:09;28.27;;;19.03;;
4375;SDS011;2202;50.866;12.750;2023-02-28T06:14:36;29.23;;;21.33;;
4375;SDS011;2202;50.866;12.750;2023-02-28T06:17:03;29.83;;;20.57;;
4375;SDS011;2202;50.866;12.750;2023-02-28T06:19:30;26.60;;;18.97;;
4375;SDS011;2202;50.866;12.750;2023-02-28T06:21:57;26.97;;;19.60;;
4375;SDS011;2202;50.866;12.750;2023-02-28T06:24:26;28.73;;;20.10;;
4375;SDS011;2202;50.866;12.750;2023-02-28T06:26:54;24.03;;;18.03;;
4375;SDS011;2202;50.866;12.750;2023-02-28T06:29:21;23.30;;;18.07;;
4375;SDS011;2202;50.866;12.750;2023-02-28T06:31:48;27.87;;;20.10;;
4375;SDS011;2202;50.866;12.750;2023-02-28T06:34:14;25.70;;;18.47;;
4375;SDS011;2202;50.866;12.750;2023-02-28T06:36:41;21.97;;;16.47;;
4375;SDS011;2202;50.866;12.750;2023-02-28T06:39:09;30.20;;;20.90;;
4375;SDS011;2202;50.866;12.750;2023-02-28T06:41:37;22.90;;;17.97;;
4375;SDS011;2202;50.866;12.750;2023-02-28T06:44:05;24.27;;;17.20;;
4375;SDS011;2202;50.866;12.750;2023-02-28T06:46:38;26.60;;;18.50;;
4375;SDS011;2202;50.866;12.750;2023-02-28T06:49:05;27.20;;;17.67;;
4375;SDS011;2202;50.866;12.750;2023-02-28T06:51:33;27.23;;;18.30;;
4375;SDS011;2202;50.866;12.750;2023-02-28T06:54:01;26.20;;;17.03;;
4375;SDS011;2202;50.866;12.750;2023-02-28T06:56:28;31.70;;;20.63;;
4375;SDS011;2202;50.866;12.750;2023-02-28T06:58:57;28.03;;;18.13;;
4375;SDS011;2202;50.866;12.750;2023-02-28T07:01:23;26.50;;;18.93;;
4375;SDS011;2202;50.866;12.750;2023-02-28T07:03:50;25.53;;;17.30;;
4375;SDS011;2202;50.866;12.750;2023-02-28T07:06:18;28.13;;;18.03;;
4375;SDS011;2202;50.866;12.750;2023-02-28T07:08:45;30.23;;;18.00;;
4375;SDS011;2202;50.866;12.750;2023-02-28T07:11:12;26.47;;;18.57;;
4375;SDS011;2202;50.866;12.750;2023-02-28T07:13:39;24.73;;;16.80;;
4375;SDS011;2202;50.866;12.750;2023-02-28T07:16:10;27.07;;;16.90;;
4375;SDS011;2202;50.866;12.750;2023-02-28T07:18:37;20.80;;;16.63;;
4375;SDS011;2202;50.866;12.750;2023-02-28T07:21:05;18.47;;;14.23;;
4375;SDS011;2202;50.866;12.750;2023-02-28T07:23:33;21.40;;;16.10;;
4375;SDS011;2202;50.866;12.750;2023-02-28T07:26:00;18.80;;;15.07;;
4375;SDS011;2202;50.866;12.750;2023-02-28T07:28:27;24.80;;;16.50;;
4375;SDS011;2202;50.866;12.750;2023-02-28T07:30:54;19.00;;;16.13;;
4375;SDS011;2202;50.866;12.750;2023-02-28T07:33:22;19.30;;;15.20;;
4375;SDS011;2202;50.866;12.750;2023-02-28T07:35:49;20.63;;;15.80;;
4375;SDS011;2202;50.866;12.750;2023-02-28T07:38:16;29.37;;;21.70;;
4375;SDS011;2202;50.866;12.750;2023-02-28T07:40:43;24.17;;;17.60;;
4375;SDS011;2202;50.866;12.750;2023-02-28T07:43:10;26.50;;;18.03;;
4375;SDS011;2202;50.866;12.750;2023-02-28T07:45:37;24.00;;;16.63;;
4375;SDS011;2202;50.866;12.750;2023-02-28T07:48:04;21.10;;;15.90;;
4375;SDS011;2202;50.866;12.750;2023-02-28T07:50:32;22.83;;;16.67;;
4375;SDS011;2202;50.866;12.750;2023-02-28T07:52:59;17.73;;;14.23;;
4375;SDS011;2202;50.866;12.750;2023-02-28T07:55:26;21.30;;;16.37;;
4375;SDS011;2202;50.866;12.750;2023-02-28T07:57:53;16.10;;;12.97;;
4375;SDS011;2202;50.866;12.750;2023-02-28T08:00:20;16.10;;;13.30;;
4375;SDS011;2202;50.866;12.750;2023-02-28T08:02:48;20.57;;;16.90;;
4375;SDS011;2202;50.866;12.750;2023-02-28T08:05:15;24.40;;;17.07;;
4375;SDS011;2202;50.866;12.750;2023-02-28T08:07:43;22.67;;;16.87;;
4375;SDS011;2202;50.866;12.750;2023-02-28T08:10:10;21.57;;;15.20;;
4375;SDS011;2202;50.866;12.750;2023-02-28T08:12:37;20.20;;;14.60;;
4375;SDS011;2202;50.866;12.750;2023-02-28T08:15:04;17.90;;;13.80;;
4375;SDS011;2202;50.866;12.750;2023-02-28T08:17:32;20.03;;;13.67;;
4375;SDS011;2202;50.866;12.750;2023-02-28T08:19:59;15.73;;;11.27;;
4375;SDS011;2202;50.866;12.750;2023-02-28T08:22:25;16.53;;;13.37;;
4375;SDS011;2202;50.866;12.750;2023-02-28T08:24:54;20.30;;;15.30;;
4375;SDS011;2202;50.866;12.750;2023-02-28T08:27:21;21.73;;;14.40;;
4375;SDS011;2202;50.866;12.750;2023-02-28T08:29:47;20.93;;;14.33;;
4375;SDS011;2202;50.866;12.750;2023-02-28T08:32:14;19.03;;;13.37;;
4375;SDS011;2202;50.866;12.750;2023-02-28T08:34:41;25.47;;;16.20;;
4375;SDS011;2202;50.866;12.750;2023-02-28T08:37:08;14.63;;;12.53;;
4375;SDS011;2202;50.866;12.750;2023-02-28T08:39:35;18.37;;;11.43;;
4375;SDS011;2202;50.866;12.750;2023-02-28T08:42:04;16.00;;;12.43;;
4375;SDS011;2202;50.866;12.750;2023-02-28T08:44:31;14.70;;;12.40;;
4375;SDS011;2202;50.866;12.750;2023-02-28T08:46:58;12.53;;;11.13;;
4375;SDS011;2202;50.866;12.750;2023-02-28T08:49:24;18.30;;;13.87;;
4375;SDS011;2202;50.866;12.750;2023-02-28T08:51:51;12.27;;;10.97;;
4375;SDS011;2202;50.866;12.750;2023-02-28T08:54:20;14.60;;;12.47;;
4375;SDS011;2202;50.866;12.750;2023-02-28T08:56:48;14.07;;;11.70;;
4375;SDS011;2202;50.866;12.750;2023-02-28T08:59:16;11.53;;;10.20;;
4375;SDS011;2202;50.866;12.750;2023-02-28T09:01:43;17.57;;;11.77;;
4375;SDS011;2202;50.866;12.750;2023-02-28T09:04:09;16.47;;;12.20;;
4375;SDS011;2202;50.866;12.750;2023-02-28T09:06:36;13.67;;;11.10;;
4375;SDS011;2202;50.866;12.750;2023-02-28T09:09:03;15.33;;;11.10;;
4375;SDS011;2202;50.866;12.750;2023-02-28T09:11:32;13.73;;;11.20;;
4375;SDS011;2202;50.866;12.750;2023-02-28T09:14:00;13.97;;;12.03;;
4375;SDS011;2202;50.866;12.750;2023-02-28T09:16:30;15.70;;;12.40;;
4375;SDS011;2202;50.866;12.750;2023-02-28T09:18:57;16.27;;;11.33;;
4375;SDS011;2202;50.866;12.750;2023-02-28T09:21:24;18.23;;;12.77;;
4375;SDS011;2202;50.866;12.750;2023-02-28T09:23:51;16.43;;;12.40;;
4375;SDS011;2202;50.866;12.750;2023-02-28T09:26:21;18.27;;;13.53;;
4375;SDS011;2202;50.866;12.750;2023-02-28T09:28:50;15.80;;;13.10;;
4375;SDS011;2202;50.866;12.750;2023-02-28T09:31:19;18.40;;;14.10;;
4375;SDS011;2202;50.866;12.750;2023-02-28T09:33:49;16.80;;;12.30;;
4375;SDS011;2202;50.866;12.750;2023-02-28T09:36:17;16.23;;;12.07;;
4375;SDS011;2202;50.866;12.750;2023-02-28T09:38:44;24.83;;;15.87;;
4375;SDS011;2202;50.866;12.750;2023-02-28T09:41:12;17.90;;;14.27;;
4375;SDS011;2202;50.866;12.750;2023-02-28T09:43:43;17.83;;;12.20;;
4375;SDS011;2202;50.866;12.750;2023-02-28T09:46:20;17.17;;;12.40;;
4375;SDS011;2202;50.866;12.750;2023-02-28T09:48:55;18.50;;;13.57;;
4375;SDS011;2202;50.866;12.750;2023-02-28T09:51:26;13.73;;;11.30;;
4375;SDS011;2202;50.866;12.750;2023-02-28T09:53:59;13.20;;;9.37;;
4375;SDS011;2202;50.866;12.750;2023-02-28T09:56:27;13.80;;;10.10;;
4375;SDS011;2202;50.866;12.750;2023-02-28T09:58:58;12.03;;;10.00;;
4375;SDS011;2202;50.866;12.750;2023-02-28T10:01:28;11.67;;;10.13;;
4375;SDS011;2202;50.866;12.750;2023-02-28T10:04:05;12.90;;;9.97;;
4375;SDS011;2202;50.866;12.750;2023-02-28T10:06:39;13.60;;;10.60;;
4375;SDS011;2202;50.866;12.750;2023-02-28T10:09:11;15.27;;;10.83;;
4375;SDS011;2202;50.866;12.750;2023-02-28T10:11:42;15.80;;;12.33;;
4375;SDS011;2202;50.866;12.750;2023-02-28T10:14:12;13.73;;;10.97;;
4375;SDS011;2202;50.866;12.750;2023-02-28T10:16:43;13.80;;;11.23;;
4375;SDS011;2202;50.866;12.750;2023-02-28T10:19:19;17.70;;;11.50;;
4375;SDS011;2202;50.866;12.750;2023-02-28T10:21:49;15.73;;;10.97;;
4375;SDS011;2202;50.866;12.750;2023-02-28T10:24:23;12.60;;;10.63;;
4375;SDS011;2202;50.866;12.750;2023-02-28T10:26:56;13.60;;;10.40;;
4375;SDS011;2202;50.866;12.750;2023-02-28T10:29:26;15.03;;;11.63;;
4375;SDS011;2202;50.866;12.750;2023-02-28T10:31:54;11.47;;;9.73;;
4375;SDS011;2202;50.866;12.750;2023-02-28T10:34:23;14.57;;;10.73;;
4375;SDS011;2202;50.866;12.750;2023-02-28T10:36:51;12.53;;;10.73;;
4375;SDS011;2202;50.866;12.750;2023-02-28T10:39:33;15.13;;;11.37;;
4375;SDS011;2202;50.866;12.750;2023-02-28T10:42:05;16.00;;;11.67;;
4375;SDS011;2202;50.866;12.750;2023-02-28T10:44:44;12.33;;;9.67;;
4375;SDS011;2202;50.866;12.750;2023-02-28T10:47:13;11.77;;;10.57;;
4375;SDS011;2202;50.866;12.750;2023-02-28T10:49:48;18.00;;;10.23;;
4375;SDS011;2202;50.866;12.750;2023-02-28T10:52:32;14.73;;;10.37;;
4375;SDS011;2202;50.866;12.750;2023-02-28T10:55:15;12.80;;;10.90;;
4375;SDS011;2202;50.866;12.750;2023-02-28T10:57:46;12.33;;;9.73;;
4375;SDS011;2202;50.866;12.750;2023-02-28T11:00:15;13.47;;;9.73;;
4375;SDS011;2202;50.866;12.750;2023-02-28T11:02:43;15.70;;;11.17;;
4375;SDS011;2202;50.866;12.750;2023-02-28T11:05:25;21.20;;;11.67;;
4375;SDS011;2202;50.866;12.750;2023-02-28T11:07:55;19.77;;;11.87;;
4375;SDS011;2202;50.866;12.750;2023-02-28T11:10:24;18.33;;;11.13;;
4375;SDS011;2202;50.866;12.750;2023-02-28T11:12:55;12.00;;;10.70;;
4375;SDS011;2202;50.866;12.750;2023-02-28T11:15:23;16.43;;;13.57;;
4375;SDS011;2202;50.866;12.750;2023-02-28T11:17:55;14.90;;;10.87;;
4375;SDS011;2202;50.866;12.750;2023-02-28T11:20:26;18.17;;;11.50;;
4375;SDS011;2202;50.866;12.750;2023-02-28T11:22:55;15.83;;;10.63;;
4375;SDS011;2202;50.866;12.750;2023-02-28T11:25:24;13.37;;;10.30;;
4375;SDS011;2202;50.866;12.750;2023-02-28T11:27:53;18.30;;;12.57;;
4375;SDS011;2202;50.866;12.750;2023-02-28T11:30:29;14.67;;;10.60;;
4375;SDS011;2202;50.866;12.750;2023-02-28T11:32:59;11.87;;;9.80;;
4375;SDS011;2202;50.866;12.750;2023-02-28T11:35:28;17.07;;;12.67;;
4375;SDS011;2202;50.866;12.750;2023-02-28T11:37:57;14.93;;;10.87;;
4375;SDS011;2202;50.866;12.750;2023-02-28T11:40:26;13.13;;;9.93;;
4375;SDS011;2202;50.866;12.750;2023-02-28T11:42:59;12.73;;;10.03;;
4375;SDS011;2202;50.866;12.750;2023-02-28T11:45:38;14.93;;;10.87;;
4375;SDS011;2202;50.866;12.750;2023-02-28T11:48:13;15.27;;;11.97;;
4375;SDS011;2202;50.866;12.750;2023-02-28T11:50:49;17.10;;;11.40;;
4375;SDS011;2202;50.866;12.750;2023-02-28T11:53:30;14.23;;;11.77;;
4375;SDS011;2202;50.866;12.750;2023-02-28T11:56:08;10.93;;;9.67;;
4375;SDS011;2202;50.866;12.750;2023-02-28T11:58:42;11.60;;;10.40;;
4375;SDS011;2202;50.866;12.750;2023-02-28T12:04:17;17.87;;;12.00;;
4375;SDS011;2202;50.866;12.750;2023-02-28T12:06:54;14.20;;;11.67;;
4375;SDS011;2202;50.866;12.750;2023-02-28T12:09:34;16.83;;;12.93;;
4375;SDS011;2202;50.866;12.750;2023-02-28T12:12:13;13.80;;;10.50;;
4375;SDS011;2202;50.866;12.750;2023-02-28T12:14:55;13.03;;;10.50;;
4375;SDS011;2202;50.866;12.750;2023-02-28T12:17:44;14.60;;;11.30;;
4375;SDS011;2202;50.866;12.750;2023-02-28T12:20:25;17.17;;;11.50;;
4375;SDS011;2202;50.866;12.750;2023-02-28T12:23:01;14.00;;;11.17;;
4375;SDS011;2202;50.866;12.750;2023-02-28T12:25:46;15.00;;;10.00;;
4375;SDS011;2202;50.866;12.750;2023-02-28T12:28:21;15.97;;;12.63;;
4375;SDS011;2202;50.866;12.750;2023-02-28T12:30:53;15.67;;;11.40;;
4375;SDS011;2202;50.866;12.750;2023-02-28T12:33:24;22.97;;;13.37;;
4375;SDS011;2202;50.866;12.750;2023-02-28T12:35:57;14.70;;;12.60;;
4375;SDS011;2202;50.866;12.750;2023-02-28T12:38:28;19.63;;;13.87;;
4375;SDS011;2202;50.866;12.750;2023-02-28T12:41:01;12.60;;;10.97;;
4375;SDS011;2202;50.866;12.750;2023-02-28T12:43:32;17.57;;;12.07;;
4375;SDS011;2202;50.866;12.750;2023-02-28T12:46:02;13.60;;;10.30;;
4375;SDS011;2202;50.866;12.750;2023-02-28T12:48:37;15.47;;;11.70;;
4375;SDS011;2202;50.866;12.750;2023-02-28T12:51:07;17.30;;;11.67;;
4375;SDS011;2202;50.866;12.750;2023-02-28T12:53:38;16.70;;;12.60;;
4375;SDS011;2202;50.866;12.750;2023-02-28T12:56:16;17.37;;;12.87;;
4375;SDS011;2202;50.866;12.750;2023-02-28T12:58:48;15.03;;;11.80;;
4375;SDS011;2202;50.866;12.750;2023-02-28T13:07:24;13.80;;;11.20;;
4375;SDS011;2202;50.866;12.750;2023-02-28T13:10:14;22.37;;;15.70;;
4375;SDS011;2202;50.866;12.750;2023-02-28T13:12:47;26.97;;;19.03;;
4375;SDS011;2202;50.866;12.750;2023-02-28T13:15:16;21.70;;;13.93;;
4375;SDS011;2202;50.866;12.750;2023-02-28T13:17:48;24.80;;;14.13;;
4375;SDS011;2202;50.866;12.750;2023-02-28T13:20:16;20.03;;;13.67;;
4375;SDS011;2202;50.866;12.750;2023-02-28T13:22:45;15.50;;;13.50;;
4375;SDS011;2202;50.866;12.750;2023-02-28T13:31:33;20.80;;;13.70;;
4375;SDS011;2202;50.866;12.750;2023-02-28T13:34:38;18.57;;;13.53;;
4375;SDS011;2202;50.866;12.750;2023-02-28T13:40:28;21.70;;;14.40;;
4375;SDS011;2202;50.866;12.750;2023-02-28T13:43:01;20.77;;;14.23;;
4375;SDS011;2202;50.866;12.750;2023-02-28T13:45:31;19.90;;;15.77;;
4375;SDS011;2202;50.866;12.750;2023-02-28T13:48:04;17.60;;;14.27;;
4375;SDS011;2202;50.866;12.750;2023-02-28T13:50:43;20.03;;;15.27;;
4375;SDS011;2202;50.866;12.750;2023-02-28T13:53:26;19.27;;;14.47;;
4375;SDS011;2202;50.866;12.750;2023-02-28T13:56:30;20.43;;;13.83;;
4375;SDS011;2202;50.866;12.750;2023-02-28T13:59:06;17.70;;;13.17;;
4375;SDS011;2202;50.866;12.750;2023-02-28T14:01:54;18.33;;;14.10;;
4375;SDS011;2202;50.866;12.750;2023-02-28T14:07:28;22.50;;;15.60;;
4375;SDS011;2202;50.866;12.750;2023-02-28T14:10:00;21.70;;;15.10;;
4375;SDS011;2202;50.866;12.750;2023-02-28T14:15:38;21.83;;;15.87;;
4375;SDS011;2202;50.866;12.750;2023-02-28T14:18:21;20.57;;;15.17;;
4375;SDS011;2202;50.866;12.750;2023-02-28T14:20:54;22.90;;;16.13;;
4375;SDS011;2202;50.866;12.750;2023-02-28T14:23:36;24.50;;;15.60;;
4375;SDS011;2202;50.866;12.750;2023-02-28T14:29:23;21.60;;;14.10;;
4375;SDS011;2202;50.866;12.750;2023-02-28T14:32:05;22.10;;;14.30;;
4375;SDS011;2202;50.866;12.750;2023-02-28T14:34:42;17.10;;;13.10;;
4375;SDS011;2202;50.866;12.750;2023-02-28T14:37:19;20.50;;;14.13;;
4375;SDS011;2202;50.866;12.750;2023-02-28T14:39:55;20.67;;;15.10;;
4375;SDS011;2202;50.866;12.750;2023-02-28T14:42:27;25.53;;;15.57;;
4375;SDS011;2202;50.866;12.750;2023-02-28T14:44:56;22.20;;;16.27;;
4375;SDS011;2202;50.866;12.750;2023-02-28T14:47:23;18.97;;;12.93;;
4375;SDS011;2202;50.866;12.750;2023-02-28T14:49:53;17.10;;;12.80;;
4375;SDS011;2202;50.866;12.750;2023-02-28T14:52:22;20.53;;;14.93;;
4375;SDS011;2202;50.866;12.750;2023-02-28T14:54:52;20.20;;;14.53;;
4375;SDS011;2202;50.866;12.750;2023-02-28T14:57:21;20.67;;;13.13;;
4375;SDS011;2202;50.866;12.750;2023-02-28T14:59:56;21.33;;;14.27;;
4375;SDS011;2202;50.866;12.750;2023-02-28T15:02:30;22.27;;;16.30;;
4375;SDS011;2202;50.866;12.750;2023-02-28T15:05:00;22.17;;;16.10;;
4375;SDS011;2202;50.866;12.750;2023-02-28T15:07:48;22.43;;;15.00;;
4375;SDS011;2202;50.866;12.750;2023-02-28T15:10:26;16.20;;;13.20;;
4375;SDS011;2202;50.866;12.750;2023-02-28T15:12:54;20.97;;;15.33;;
4375;SDS011;2202;50.866;12.750;2023-02-28T15:15:23;21.30;;;13.70;;
4375;SDS011;2202;50.866;12.750;2023-02-28T15:17:54;18.70;;;14.77;;
4375;SDS011;2202;50.866;12.750;2023-02-28T15:20:23;21.97;;;16.03;;
4375;SDS011;2202;50.866;12.750;2023-02-28T15:22:53;20.80;;;15.63;;
4375;SDS011;2202;50.866;12.750;2023-02-28T15:25:23;19.57;;;14.40;;
4375;SDS011;2202;50.866;12.750;2023-02-28T15:27:51;18.87;;;14.27;;
4375;SDS011;2202;50.866;12.750;2023-02-28T15:30:21;21.37;;;15.73;;
4375;SDS011;2202;50.866;12.750;2023-02-28T15:33:03;18.23;;;14.03;;
4375;SDS011;2202;50.866;12.750;2023-02-28T15:35:44;21.10;;;15.77;;
4375;SDS011;2202;50.866;12.750;2023-02-28T15:38:15;23.87;;;15.57;;